Terminal Aerodrome Forecast
Issued by NWS

Home | Current Version | Previous Version | Text Only | Print | Product List | Glossary On
Versions: 1 2 3 4 5 6 7 8 9 10
136
FTUS45 KVEF 241139
TAFEED
TAF
KEED 241139Z 2412/2512 26010KT P6SM BKN250
     FM242000 27020G30KT P6SM BKN200
     FM250400 27014G24KT P6SM BKN250=

USA.gov is the U.S. government's official web portal to all federal, state and local government web resources and services.